sensor_id;sensor_type;location;lat;lon;timestamp;temperature;humidity
4107;DHT22;21906;50.812;7.132;2022-12-01T00:00:33;8.70;80.30
4107;DHT22;21906;50.812;7.132;2022-12-01T00:02:58;8.70;80.10
4107;DHT22;21906;50.812;7.132;2022-12-01T00:05:24;8.70;80.40
4107;DHT22;21906;50.812;7.132;2022-12-01T00:07:50;8.70;80.10
4107;DHT22;21906;50.812;7.132;2022-12-01T00:10:15;8.60;80.20
4107;DHT22;21906;50.812;7.132;2022-12-01T00:12:51;8.70;80.20
4107;DHT22;21906;50.812;7.132;2022-12-01T00:15:17;8.70;80.00
4107;DHT22;21906;50.812;7.132;2022-12-01T00:17:42;8.70;80.20
4107;DHT22;21906;50.812;7.132;2022-12-01T00:20:10;8.70;80.20
4107;DHT22;21906;50.812;7.132;2022-12-01T00:22:36;8.80;80.00
4107;DHT22;21906;50.812;7.132;2022-12-01T00:25:02;8.70;80.00
4107;DHT22;21906;50.812;7.132;2022-12-01T00:27:28;8.70;80.20
4107;DHT22;21906;50.812;7.132;2022-12-01T00:29:54;8.60;80.00
4107;DHT22;21906;50.812;7.132;2022-12-01T00:32:19;8.60;80.20
4107;DHT22;21906;50.812;7.132;2022-12-01T00:34:45;8.60;80.50
4107;DHT22;21906;50.812;7.132;2022-12-01T00:37:10;8.60;80.50
4107;DHT22;21906;50.812;7.132;2022-12-01T00:39:36;8.70;80.40
4107;DHT22;21906;50.812;7.132;2022-12-01T00:42:02;8.60;80.50
4107;DHT22;21906;50.812;7.132;2022-12-01T00:44:27;8.60;80.50
4107;DHT22;21906;50.812;7.132;2022-12-01T00:46:53;8.70;80.20
4107;DHT22;21906;50.812;7.132;2022-12-01T00:49:19;8.70;80.20
4107;DHT22;21906;50.812;7.132;2022-12-01T00:51:44;8.70;80.10
4107;DHT22;21906;50.812;7.132;2022-12-01T00:54:10;8.70;80.20
4107;DHT22;21906;50.812;7.132;2022-12-01T00:56:35;8.50;80.30
4107;DHT22;21906;50.812;7.132;2022-12-01T00:59:01;8.60;80.30
4107;DHT22;21906;50.812;7.132;2022-12-01T01:01:27;8.70;79.90
4107;DHT22;21906;50.812;7.132;2022-12-01T01:03:52;8.70;80.10
4107;DHT22;21906;50.812;7.132;2022-12-01T01:06:18;8.70;80.10
4107;DHT22;21906;50.812;7.132;2022-12-01T01:08:44;8.60;80.00
4107;DHT22;21906;50.812;7.132;2022-12-01T01:11:09;8.60;80.10
4107;DHT22;21906;50.812;7.132;2022-12-01T01:13:37;8.70;80.20
4107;DHT22;21906;50.812;7.132;2022-12-01T01:16:04;8.70;80.30
4107;DHT22;21906;50.812;7.132;2022-12-01T01:18:30;8.70;80.10
4107;DHT22;21906;50.812;7.132;2022-12-01T01:21:07;8.70;80.10
4107;DHT22;21906;50.812;7.132;2022-12-01T01:23:35;8.60;80.40
4107;DHT22;21906;50.812;7.132;2022-12-01T01:28:31;8.60;80.30
4107;DHT22;21906;50.812;7.132;2022-12-01T01:30:57;8.60;80.50
4107;DHT22;21906;50.812;7.132;2022-12-01T01:33:23;8.60;80.30
4107;DHT22;21906;50.812;7.132;2022-12-01T01:35:49;8.60;80.40
4107;DHT22;21906;50.812;7.132;2022-12-01T01:38:15;8.70;80.50
4107;DHT22;21906;50.812;7.132;2022-12-01T01:40:47;8.70;80.40
4107;DHT22;21906;50.812;7.132;2022-12-01T01:43:17;8.70;80.10
4107;DHT22;21906;50.812;7.132;2022-12-01T01:46:02;8.60;80.30
4107;DHT22;21906;50.812;7.132;2022-12-01T01:48:27;8.70;80.10
4107;DHT22;21906;50.812;7.132;2022-12-01T01:50:53;8.80;80.00
4107;DHT22;21906;50.812;7.132;2022-12-01T01:53:20;8.70;80.10
4107;DHT22;21906;50.812;7.132;2022-12-01T01:55:46;8.70;80.20
4107;DHT22;21906;50.812;7.132;2022-12-01T01:58:12;8.70;80.10
4107;DHT22;21906;50.812;7.132;2022-12-01T02:00:41;8.80;80.00
4107;DHT22;21906;50.812;7.132;2022-12-01T02:03:11;8.70;80.10
4107;DHT22;21906;50.812;7.132;2022-12-01T02:05:38;8.70;80.20
4107;DHT22;21906;50.812;7.132;2022-12-01T02:08:05;8.70;80.50
4107;DHT22;21906;50.812;7.132;2022-12-01T02:27:01;8.80;80.10
4107;DHT22;21906;50.812;7.132;2022-12-01T02:32:11;8.60;80.70
4107;DHT22;21906;50.812;7.132;2022-12-01T02:34:43;8.60;80.80
4107;DHT22;21906;50.812;7.132;2022-12-01T02:38:02;8.60;80.90
4107;DHT22;21906;50.812;7.132;2022-12-01T02:40:19;8.50;81.00
4107;DHT22;21906;50.812;7.132;2022-12-01T02:43:07;8.50;80.90
4107;DHT22;21906;50.812;7.132;2022-12-01T02:48:28;8.60;80.90
4107;DHT22;21906;50.812;7.132;2022-12-01T02:50:57;8.60;80.90
4107;DHT22;21906;50.812;7.132;2022-12-01T02:53:24;8.60;81.00
4107;DHT22;21906;50.812;7.132;2022-12-01T02:55:55;8.60;80.80
4107;DHT22;21906;50.812;7.132;2022-12-01T02:58:22;8.70;80.70
4107;DHT22;21906;50.812;7.132;2022-12-01T03:01:04;8.60;81.00
4107;DHT22;21906;50.812;7.132;2022-12-01T03:15:04;8.60;81.20
4107;DHT22;21906;50.812;7.132;2022-12-01T03:17:48;8.70;81.30
4107;DHT22;21906;50.812;7.132;2022-12-01T03:20:31;8.60;81.40
4107;DHT22;21906;50.812;7.132;2022-12-01T03:23:09;8.70;81.60
4107;DHT22;21906;50.812;7.132;2022-12-01T03:25:40;8.70;81.50
4107;DHT22;21906;50.812;7.132;2022-12-01T03:28:07;8.70;81.50
4107;DHT22;21906;50.812;7.132;2022-12-01T03:30:35;8.80;81.50
4107;DHT22;21906;50.812;7.132;2022-12-01T03:33:09;8.80;81.40
4107;DHT22;21906;50.812;7.132;2022-12-01T03:35:45;8.80;81.50
4107;DHT22;21906;50.812;7.132;2022-12-01T03:38:17;8.70;81.40
4107;DHT22;21906;50.812;7.132;2022-12-01T03:40:45;8.70;81.60
4107;DHT22;21906;50.812;7.132;2022-12-01T03:43:18;8.70;81.70
4107;DHT22;21906;50.812;7.132;2022-12-01T03:46:11;8.80;81.50
4107;DHT22;21906;50.812;7.132;2022-12-01T03:48:38;8.70;81.60
4107;DHT22;21906;50.812;7.132;2022-12-01T03:53:54;8.50;81.90
4107;DHT22;21906;50.812;7.132;2022-12-01T03:56:25;8.50;82.10
4107;DHT22;21906;50.812;7.132;2022-12-01T03:58:55;8.50;82.00
4107;DHT22;21906;50.812;7.132;2022-12-01T04:01:22;8.50;82.10
4107;DHT22;21906;50.812;7.132;2022-12-01T04:03:48;8.50;82.30
4107;DHT22;21906;50.812;7.132;2022-12-01T04:06:13;8.50;82.40
4107;DHT22;21906;50.812;7.132;2022-12-01T04:08:39;8.40;82.40
4107;DHT22;21906;50.812;7.132;2022-12-01T04:11:05;8.40;82.50
4107;DHT22;21906;50.812;7.132;2022-12-01T04:13:51;8.40;82.50
4107;DHT22;21906;50.812;7.132;2022-12-01T04:16:17;8.40;82.40
4107;DHT22;21906;50.812;7.132;2022-12-01T04:18:42;8.40;82.70
4107;DHT22;21906;50.812;7.132;2022-12-01T04:21:08;8.40;82.70
4107;DHT22;21906;50.812;7.132;2022-12-01T04:23:33;8.40;82.70
4107;DHT22;21906;50.812;7.132;2022-12-01T04:26:18;8.50;82.40
4107;DHT22;21906;50.812;7.132;2022-12-01T04:28:43;8.50;82.40
4107;DHT22;21906;50.812;7.132;2022-12-01T04:31:09;8.50;82.50
4107;DHT22;21906;50.812;7.132;2022-12-01T04:33:35;8.60;82.20
4107;DHT22;21906;50.812;7.132;2022-12-01T04:36:01;8.60;82.00
4107;DHT22;21906;50.812;7.132;2022-12-01T04:38:27;8.50;82.20
4107;DHT22;21906;50.812;7.132;2022-12-01T04:40:52;8.50;82.40
4107;DHT22;21906;50.812;7.132;2022-12-01T04:43:18;8.40;82.70
4107;DHT22;21906;50.812;7.132;2022-12-01T04:45:44;8.50;82.60
4107;DHT22;21906;50.812;7.132;2022-12-01T04:48:10;8.50;82.40
4107;DHT22;21906;50.812;7.132;2022-12-01T04:50:37;8.40;82.70
4107;DHT22;21906;50.812;7.132;2022-12-01T04:53:04;8.40;82.80
4107;DHT22;21906;50.812;7.132;2022-12-01T04:55:30;8.20;83.30
4107;DHT22;21906;50.812;7.132;2022-12-01T04:57:55;8.40;83.10
4107;DHT22;21906;50.812;7.132;2022-12-01T05:00:22;8.40;82.90
4107;DHT22;21906;50.812;7.132;2022-12-01T05:02:48;8.40;82.70
4107;DHT22;21906;50.812;7.132;2022-12-01T05:05:14;8.40;82.80
4107;DHT22;21906;50.812;7.132;2022-12-01T05:07:39;8.40;82.60
4107;DHT22;21906;50.812;7.132;2022-12-01T05:10:06;8.40;82.70
4107;DHT22;21906;50.812;7.132;2022-12-01T05:12:31;8.40;82.70
4107;DHT22;21906;50.812;7.132;2022-12-01T05:14:57;8.50;82.50
4107;DHT22;21906;50.812;7.132;2022-12-01T05:17:23;8.50;82.30
4107;DHT22;21906;50.812;7.132;2022-12-01T05:19:48;8.50;82.10
4107;DHT22;21906;50.812;7.132;2022-12-01T05:22:33;8.50;82.20
4107;DHT22;21906;50.812;7.132;2022-12-01T05:24:58;8.50;82.40
4107;DHT22;21906;50.812;7.132;2022-12-01T05:27:24;8.50;82.30
4107;DHT22;21906;50.812;7.132;2022-12-01T05:29:49;8.60;82.30
4107;DHT22;21906;50.812;7.132;2022-12-01T05:32:15;8.50;82.40
4107;DHT22;21906;50.812;7.132;2022-12-01T05:34:41;8.50;82.40
4107;DHT22;21906;50.812;7.132;2022-12-01T05:37:06;8.40;82.60
4107;DHT22;21906;50.812;7.132;2022-12-01T05:39:32;8.40;82.40
4107;DHT22;21906;50.812;7.132;2022-12-01T05:41:57;8.40;82.30
4107;DHT22;21906;50.812;7.132;2022-12-01T05:44:23;8.20;82.70
4107;DHT22;21906;50.812;7.132;2022-12-01T05:46:49;8.30;83.00
4107;DHT22;21906;50.812;7.132;2022-12-01T05:49:14;8.30;82.90
4107;DHT22;21906;50.812;7.132;2022-12-01T05:51:42;8.40;82.70
4107;DHT22;21906;50.812;7.132;2022-12-01T05:54:08;8.40;82.60
4107;DHT22;21906;50.812;7.132;2022-12-01T05:56:34;8.40;82.40
4107;DHT22;21906;50.812;7.132;2022-12-01T05:58:59;8.40;82.20
4107;DHT22;21906;50.812;7.132;2022-12-01T06:01:25;8.30;82.20
4107;DHT22;21906;50.812;7.132;2022-12-01T06:03:52;8.40;82.10
4107;DHT22;21906;50.812;7.132;2022-12-01T06:06:18;8.30;81.80
4107;DHT22;21906;50.812;7.132;2022-12-01T06:08:43;8.40;81.90
4107;DHT22;21906;50.812;7.132;2022-12-01T06:11:09;8.40;81.80
4107;DHT22;21906;50.812;7.132;2022-12-01T06:13:35;8.40;81.80
4107;DHT22;21906;50.812;7.132;2022-12-01T06:16:02;8.40;81.70
4107;DHT22;21906;50.812;7.132;2022-12-01T06:18:33;8.40;81.50
4107;DHT22;21906;50.812;7.132;2022-12-01T06:20:59;8.40;81.70
4107;DHT22;21906;50.812;7.132;2022-12-01T06:23:25;8.40;81.40
4107;DHT22;21906;50.812;7.132;2022-12-01T06:25:51;8.40;81.80
4107;DHT22;21906;50.812;7.132;2022-12-01T06:28:16;8.40;81.40
4107;DHT22;21906;50.812;7.132;2022-12-01T06:30:42;8.40;81.60
4107;DHT22;21906;50.812;7.132;2022-12-01T06:33:08;8.40;81.40
4107;DHT22;21906;50.812;7.132;2022-12-01T06:35:34;8.40;81.60
4107;DHT22;21906;50.812;7.132;2022-12-01T06:38:00;8.40;81.80
4107;DHT22;21906;50.812;7.132;2022-12-01T06:40:26;8.40;81.40
4107;DHT22;21906;50.812;7.132;2022-12-01T06:42:52;8.40;81.50
4107;DHT22;21906;50.812;7.132;2022-12-01T06:45:18;8.40;81.10
4107;DHT22;21906;50.812;7.132;2022-12-01T06:47:44;8.40;81.20
4107;DHT22;21906;50.812;7.132;2022-12-01T06:50:11;8.40;81.00
4107;DHT22;21906;50.812;7.132;2022-12-01T06:52:37;8.40;80.80
4107;DHT22;21906;50.812;7.132;2022-12-01T06:55:03;8.40;80.60
4107;DHT22;21906;50.812;7.132;2022-12-01T06:57:30;8.40;80.70
4107;DHT22;21906;50.812;7.132;2022-12-01T06:59:55;8.40;80.80
4107;DHT22;21906;50.812;7.132;2022-12-01T07:02:22;8.50;80.50
4107;DHT22;21906;50.812;7.132;2022-12-01T07:04:48;8.50;80.30
4107;DHT22;21906;50.812;7.132;2022-12-01T07:07:13;8.50;80.30
4107;DHT22;21906;50.812;7.132;2022-12-01T07:09:39;8.40;80.00
4107;DHT22;21906;50.812;7.132;2022-12-01T07:12:05;8.40;80.10
4107;DHT22;21906;50.812;7.132;2022-12-01T07:14:31;8.30;80.20
4107;DHT22;21906;50.812;7.132;2022-12-01T07:16:57;8.40;80.30
4107;DHT22;21906;50.812;7.132;2022-12-01T07:19:23;8.30;80.40
4107;DHT22;21906;50.812;7.132;2022-12-01T07:21:49;8.40;80.30
4107;DHT22;21906;50.812;7.132;2022-12-01T07:24:14;8.40;80.40
4107;DHT22;21906;50.812;7.132;2022-12-01T07:26:40;8.40;80.30
4107;DHT22;21906;50.812;7.132;2022-12-01T07:29:07;8.40;80.60
4107;DHT22;21906;50.812;7.132;2022-12-01T07:31:33;8.40;80.70
4107;DHT22;21906;50.812;7.132;2022-12-01T07:33:59;8.40;80.70
4107;DHT22;21906;50.812;7.132;2022-12-01T07:36:24;8.50;80.80
4107;DHT22;21906;50.812;7.132;2022-12-01T07:38:50;8.40;80.90
4107;DHT22;21906;50.812;7.132;2022-12-01T07:41:17;8.50;80.90
4107;DHT22;21906;50.812;7.132;2022-12-01T07:43:46;8.50;80.80
4107;DHT22;21906;50.812;7.132;2022-12-01T07:46:30;8.50;80.90
4107;DHT22;21906;50.812;7.132;2022-12-01T07:48:56;8.50;81.00
4107;DHT22;21906;50.812;7.132;2022-12-01T07:51:24;8.40;81.10
4107;DHT22;21906;50.812;7.132;2022-12-01T07:53:50;8.40;81.30
4107;DHT22;21906;50.812;7.132;2022-12-01T07:56:17;8.40;80.80
4107;DHT22;21906;50.812;7.132;2022-12-01T07:58:43;8.40;81.00
4107;DHT22;21906;50.812;7.132;2022-12-01T08:01:14;8.40;81.00
4107;DHT22;21906;50.812;7.132;2022-12-01T08:03:41;8.40;80.90
4107;DHT22;21906;50.812;7.132;2022-12-01T08:06:08;8.50;80.90
4107;DHT22;21906;50.812;7.132;2022-12-01T08:08:36;8.50;81.00
4107;DHT22;21906;50.812;7.132;2022-12-01T08:11:05;8.50;80.80
4107;DHT22;21906;50.812;7.132;2022-12-01T08:13:31;8.50;81.30
4107;DHT22;21906;50.812;7.132;2022-12-01T08:15:57;8.50;81.20
4107;DHT22;21906;50.812;7.132;2022-12-01T08:18:22;8.50;80.90
4107;DHT22;21906;50.812;7.132;2022-12-01T08:20:49;8.50;81.10
4107;DHT22;21906;50.812;7.132;2022-12-01T08:23:15;8.60;81.10
4107;DHT22;21906;50.812;7.132;2022-12-01T08:25:41;8.70;80.90
4107;DHT22;21906;50.812;7.132;2022-12-01T08:28:06;8.70;80.90
4107;DHT22;21906;50.812;7.132;2022-12-01T08:30:32;8.70;80.90
4107;DHT22;21906;50.812;7.132;2022-12-01T08:32:57;8.80;80.50
4107;DHT22;21906;50.812;7.132;2022-12-01T08:35:24;8.90;80.40
4107;DHT22;21906;50.812;7.132;2022-12-01T08:37:52;8.90;80.20
4107;DHT22;21906;50.812;7.132;2022-12-01T08:40:19;8.80;80.20
4107;DHT22;21906;50.812;7.132;2022-12-01T08:42:45;8.90;80.00
4107;DHT22;21906;50.812;7.132;2022-12-01T08:45:11;8.80;79.70
4107;DHT22;21906;50.812;7.132;2022-12-01T08:47:37;8.80;79.80
4107;DHT22;21906;50.812;7.132;2022-12-01T08:50:04;8.90;79.80
4107;DHT22;21906;50.812;7.132;2022-12-01T08:52:31;8.90;79.80
4107;DHT22;21906;50.812;7.132;2022-12-01T08:54:57;8.90;79.70
4107;DHT22;21906;50.812;7.132;2022-12-01T08:57:23;8.90;79.30
4107;DHT22;21906;50.812;7.132;2022-12-01T08:59:48;8.90;79.50
4107;DHT22;21906;50.812;7.132;2022-12-01T09:02:14;8.80;79.50
4107;DHT22;21906;50.812;7.132;2022-12-01T09:04:42;8.80;80.00
4107;DHT22;21906;50.812;7.132;2022-12-01T09:07:09;8.90;80.00
4107;DHT22;21906;50.812;7.132;2022-12-01T09:09:36;8.90;79.90
4107;DHT22;21906;50.812;7.132;2022-12-01T09:12:02;8.80;79.80
4107;DHT22;21906;50.812;7.132;2022-12-01T09:14:28;8.70;79.30
4107;DHT22;21906;50.812;7.132;2022-12-01T09:16:53;8.80;79.70
4107;DHT22;21906;50.812;7.132;2022-12-01T09:19:20;8.80;79.70
4107;DHT22;21906;50.812;7.132;2022-12-01T09:21:45;8.80;79.60
4107;DHT22;21906;50.812;7.132;2022-12-01T09:24:14;8.70;79.50
4107;DHT22;21906;50.812;7.132;2022-12-01T09:26:40;8.80;79.70
4107;DHT22;21906;50.812;7.132;2022-12-01T09:29:08;8.80;79.10
4107;DHT22;21906;50.812;7.132;2022-12-01T09:31:34;8.70;79.10
4107;DHT22;21906;50.812;7.132;2022-12-01T09:34:06;8.80;79.20
4107;DHT22;21906;50.812;7.132;2022-12-01T09:36:33;8.80;78.90
4107;DHT22;21906;50.812;7.132;2022-12-01T09:38:59;8.70;78.80
4107;DHT22;21906;50.812;7.132;2022-12-01T09:41:32;8.60;79.00
4107;DHT22;21906;50.812;7.132;2022-12-01T09:44:15;8.60;79.00
4107;DHT22;21906;50.812;7.132;2022-12-01T09:46:50;8.70;79.30
4107;DHT22;21906;50.812;7.132;2022-12-01T09:49:23;8.70;78.80
4107;DHT22;21906;50.812;7.132;2022-12-01T09:51:51;8.80;78.90
4107;DHT22;21906;50.812;7.132;2022-12-01T09:54:18;8.50;79.00
4107;DHT22;21906;50.812;7.132;2022-12-01T09:56:47;8.50;79.40
4107;DHT22;21906;50.812;7.132;2022-12-01T09:59:26;8.40;79.60
4107;DHT22;21906;50.812;7.132;2022-12-01T10:02:00;8.50;79.60
4107;DHT22;21906;50.812;7.132;2022-12-01T10:04:35;8.50;79.50
4107;DHT22;21906;50.812;7.132;2022-12-01T10:09:45;8.60;79.50
4107;DHT22;21906;50.812;7.132;2022-12-01T10:12:16;8.60;79.20
4107;DHT22;21906;50.812;7.132;2022-12-01T10:14:47;8.60;79.20
4107;DHT22;21906;50.812;7.132;2022-12-01T10:20:05;8.60;78.90
4107;DHT22;21906;50.812;7.132;2022-12-01T10:25:23;8.60;79.40
4107;DHT22;21906;50.812;7.132;2022-12-01T10:30:22;8.50;78.30
4107;DHT22;21906;50.812;7.132;2022-12-01T10:32:52;8.50;78.40
4107;DHT22;21906;50.812;7.132;2022-12-01T10:35:20;8.40;79.30
4107;DHT22;21906;50.812;7.132;2022-12-01T10:37:55;8.50;79.20
4107;DHT22;21906;50.812;7.132;2022-12-01T10:40:22;8.50;78.60
4107;DHT22;21906;50.812;7.132;2022-12-01T10:42:50;8.60;78.80
4107;DHT22;21906;50.812;7.132;2022-12-01T10:45:36;8.60;78.20
4107;DHT22;21906;50.812;7.132;2022-12-01T10:48:19;8.60;78.30
4107;DHT22;21906;50.812;7.132;2022-12-01T10:50:52;8.60;77.70
4107;DHT22;21906;50.812;7.132;2022-12-01T10:55:49;8.50;78.20
4107;DHT22;21906;50.812;7.132;2022-12-01T10:58:18;8.60;78.00
4107;DHT22;21906;50.812;7.132;2022-12-01T11:00:57;8.70;77.70
4107;DHT22;21906;50.812;7.132;2022-12-01T11:03:26;8.80;77.60
4107;DHT22;21906;50.812;7.132;2022-12-01T11:05:55;8.80;77.20
4107;DHT22;21906;50.812;7.132;2022-12-01T11:08:44;8.70;76.70
4107;DHT22;21906;50.812;7.132;2022-12-01T11:13:56;8.60;76.30
4107;DHT22;21906;50.812;7.132;2022-12-01T11:16:51;8.80;77.00
4107;DHT22;21906;50.812;7.132;2022-12-01T11:19:30;8.90;76.80
4107;DHT22;21906;50.812;7.132;2022-12-01T11:22:01;8.90;76.20
4107;DHT22;21906;50.812;7.132;2022-12-01T11:24:42;8.80;75.70
4107;DHT22;21906;50.812;7.132;2022-12-01T11:27:23;8.70;75.90
4107;DHT22;21906;50.812;7.132;2022-12-01T11:29:55;8.80;75.90
4107;DHT22;21906;50.812;7.132;2022-12-01T11:32:27;8.90;76.00
4107;DHT22;21906;50.812;7.132;2022-12-01T11:34:54;8.80;75.80
4107;DHT22;21906;50.812;7.132;2022-12-01T11:37:24;8.90;75.90
4107;DHT22;21906;50.812;7.132;2022-12-01T11:39:52;8.90;75.10
4107;DHT22;21906;50.812;7.132;2022-12-01T11:42:22;8.90;75.60
4107;DHT22;21906;50.812;7.132;2022-12-01T11:44:55;8.90;76.10
4107;DHT22;21906;50.812;7.132;2022-12-01T11:47:26;8.80;75.10
4107;DHT22;21906;50.812;7.132;2022-12-01T11:49:58;8.70;75.10
4107;DHT22;21906;50.812;7.132;2022-12-01T11:57:24;8.60;73.90
4107;DHT22;21906;50.812;7.132;2022-12-01T11:59:50;8.50;74.70
4107;DHT22;21906;50.812;7.132;2022-12-01T12:10:53;8.70;74.20
4107;DHT22;21906;50.812;7.132;2022-12-01T12:30:23;8.80;72.80
4107;DHT22;21906;50.812;7.132;2022-12-01T12:38:47;9.00;70.90
4107;DHT22;21906;50.812;7.132;2022-12-01T12:44:38;8.90;70.10
4107;DHT22;21906;50.812;7.132;2022-12-01T12:50:08;9.00;70.10
4107;DHT22;21906;50.812;7.132;2022-12-01T12:52:42;9.10;69.80
4107;DHT22;21906;50.812;7.132;2022-12-01T12:55:21;9.10;69.20
4107;DHT22;21906;50.812;7.132;2022-12-01T12:57:55;9.10;69.20
4107;DHT22;21906;50.812;7.132;2022-12-01T13:00:28;9.00;69.10
4107;DHT22;21906;50.812;7.132;2022-12-01T13:05:47;9.10;70.10
4107;DHT22;21906;50.812;7.132;2022-12-01T13:11:02;9.00;69.20
4107;DHT22;21906;50.812;7.132;2022-12-01T13:13:35;8.90;69.50
4107;DHT22;21906;50.812;7.132;2022-12-01T13:16:08;9.00;69.50
4107;DHT22;21906;50.812;7.132;2022-12-01T13:18:48;8.90;69.20
4107;DHT22;21906;50.812;7.132;2022-12-01T13:21:18;8.90;69.20
4107;DHT22;21906;50.812;7.132;2022-12-01T13:23:46;8.90;69.60
4107;DHT22;21906;50.812;7.132;2022-12-01T13:26:14;8.90;69.30
4107;DHT22;21906;50.812;7.132;2022-12-01T13:28:50;8.90;68.50
4107;DHT22;21906;50.812;7.132;2022-12-01T13:31:18;8.80;68.20
4107;DHT22;21906;50.812;7.132;2022-12-01T13:34:00;8.60;68.60
4107;DHT22;21906;50.812;7.132;2022-12-01T13:36:26;8.60;69.50
4107;DHT22;21906;50.812;7.132;2022-12-01T13:43:56;8.70;69.60
4107;DHT22;21906;50.812;7.132;2022-12-01T13:46:26;8.80;69.10
4107;DHT22;21906;50.812;7.132;2022-12-01T13:48:55;8.80;69.00
4107;DHT22;21906;50.812;7.132;2022-12-01T13:51:21;8.80;69.50
4107;DHT22;21906;50.812;7.132;2022-12-01T13:54:26;8.90;69.20
4107;DHT22;21906;50.812;7.132;2022-12-01T13:57:11;8.90;69.80
4107;DHT22;21906;50.812;7.132;2022-12-01T14:02:33;8.90;69.30
4107;DHT22;21906;50.812;7.132;2022-12-01T14:07:51;8.70;69.10
4107;DHT22;21906;50.812;7.132;2022-12-01T14:10:25;8.70;69.60
4107;DHT22;21906;50.812;7.132;2022-12-01T14:12:55;8.60;69.40
4107;DHT22;21906;50.812;7.132;2022-12-01T14:20:46;8.50;68.50
4107;DHT22;21906;50.812;7.132;2022-12-01T14:23:16;8.50;68.40
4107;DHT22;21906;50.812;7.132;2022-12-01T14:26:18;8.40;68.00
4107;DHT22;21906;50.812;7.132;2022-12-01T14:31:21;8.70;69.80
4107;DHT22;21906;50.812;7.132;2022-12-01T14:34:06;8.70;68.30
4107;DHT22;21906;50.812;7.132;2022-12-01T14:36:40;8.70;69.00
4107;DHT22;21906;50.812;7.132;2022-12-01T14:39:27;8.60;68.50
4107;DHT22;21906;50.812;7.132;2022-12-01T14:44:50;8.60;70.50
4107;DHT22;21906;50.812;7.132;2022-12-01T14:47:53;8.60;70.00
4107;DHT22;21906;50.812;7.132;2022-12-01T14:50:31;8.60;70.00
4107;DHT22;21906;50.812;7.132;2022-12-01T14:53:17;8.70;69.80
4107;DHT22;21906;50.812;7.132;2022-12-01T14:55:56;8.70;70.00
4107;DHT22;21906;50.812;7.132;2022-12-01T14:58:28;8.50;69.80
4107;DHT22;21906;50.812;7.132;2022-12-01T15:01:07;8.50;70.10
4107;DHT22;21906;50.812;7.132;2022-12-01T15:03:46;8.40;69.80
4107;DHT22;21906;50.812;7.132;2022-12-01T15:06:24;8.40;69.80
4107;DHT22;21906;50.812;7.132;2022-12-01T15:11:35;8.30;70.30
4107;DHT22;21906;50.812;7.132;2022-12-01T15:14:38;8.30;70.30
4107;DHT22;21906;50.812;7.132;2022-12-01T15:17:33;8.30;70.30
4107;DHT22;21906;50.812;7.132;2022-12-01T15:20:00;8.40;70.50
4107;DHT22;21906;50.812;7.132;2022-12-01T15:22:29;8.40;70.30
4107;DHT22;21906;50.812;7.132;2022-12-01T15:25:05;8.40;69.60
4107;DHT22;21906;50.812;7.132;2022-12-01T15:27:32;8.40;70.50
4107;DHT22;21906;50.812;7.132;2022-12-01T15:29:58;8.40;70.60
4107;DHT22;21906;50.812;7.132;2022-12-01T15:32:29;8.40;70.50
4107;DHT22;21906;50.812;7.132;2022-12-01T15:34:56;8.20;70.10
4107;DHT22;21906;50.812;7.132;2022-12-01T15:37:27;8.20;70.10
4107;DHT22;21906;50.812;7.132;2022-12-01T15:39:58;8.00;70.30
4107;DHT22;21906;50.812;7.132;2022-12-01T15:42:31;7.80;70.50
4107;DHT22;21906;50.812;7.132;2022-12-01T15:47:46;7.60;71.50
4107;DHT22;21906;50.812;7.132;2022-12-01T15:50:25;7.70;71.50
4107;DHT22;21906;50.812;7.132;2022-12-01T15:52:54;7.70;71.40
4107;DHT22;21906;50.812;7.132;2022-12-01T15:55:29;7.80;71.40
4107;DHT22;21906;50.812;7.132;2022-12-01T15:57:56;7.90;71.20
4107;DHT22;21906;50.812;7.132;2022-12-01T16:00:22;7.90;71.20
4107;DHT22;21906;50.812;7.132;2022-12-01T16:02:54;8.00;70.50
4107;DHT22;21906;50.812;7.132;2022-12-01T16:05:43;8.00;70.50
4107;DHT22;21906;50.812;7.132;2022-12-01T16:08:19;7.90;70.90
4107;DHT22;21906;50.812;7.132;2022-12-01T16:10:45;7.90;71.00
4107;DHT22;21906;50.812;7.132;2022-12-01T16:16:37;7.90;70.90
4107;DHT22;21906;50.812;7.132;2022-12-01T16:24:44;8.00;70.80
4107;DHT22;21906;50.812;7.132;2022-12-01T16:27:28;7.90;71.00
4107;DHT22;21906;50.812;7.132;2022-12-01T16:30:04;7.90;70.30
4107;DHT22;21906;50.812;7.132;2022-12-01T16:32:38;7.80;70.20
4107;DHT22;21906;50.812;7.132;2022-12-01T16:35:06;7.80;71.10
4107;DHT22;21906;50.812;7.132;2022-12-01T16:37:44;7.80;71.30
4107;DHT22;21906;50.812;7.132;2022-12-01T16:40:10;7.80;71.30
4107;DHT22;21906;50.812;7.132;2022-12-01T16:42:37;7.90;71.30
4107;DHT22;21906;50.812;7.132;2022-12-01T16:45:03;8.00;71.20
4107;DHT22;21906;50.812;7.132;2022-12-01T16:47:30;8.00;70.90
4107;DHT22;21906;50.812;7.132;2022-12-01T16:49:56;8.00;71.10
4107;DHT22;21906;50.812;7.132;2022-12-01T16:52:22;8.10;71.20
4107;DHT22;21906;50.812;7.132;2022-12-01T16:54:48;8.20;71.00
4107;DHT22;21906;50.812;7.132;2022-12-01T16:57:14;8.20;70.20
4107;DHT22;21906;50.812;7.132;2022-12-01T16:59:42;8.10;70.00
4107;DHT22;21906;50.812;7.132;2022-12-01T17:02:09;7.90;70.10
4107;DHT22;21906;50.812;7.132;2022-12-01T17:04:36;8.00;70.50
4107;DHT22;21906;50.812;7.132;2022-12-01T17:07:02;8.10;70.20
4107;DHT22;21906;50.812;7.132;2022-12-01T17:09:28;8.00;70.40
4107;DHT22;21906;50.812;7.132;2022-12-01T17:11:54;7.90;69.60
4107;DHT22;21906;50.812;7.132;2022-12-01T17:14:21;7.80;70.40
4107;DHT22;21906;50.812;7.132;2022-12-01T17:16:47;7.70;70.30
4107;DHT22;21906;50.812;7.132;2022-12-01T17:19:13;7.70;70.50
4107;DHT22;21906;50.812;7.132;2022-12-01T17:21:39;7.80;70.20
4107;DHT22;21906;50.812;7.132;2022-12-01T17:24:05;7.70;70.00
4107;DHT22;21906;50.812;7.132;2022-12-01T17:26:30;7.70;69.90
4107;DHT22;21906;50.812;7.132;2022-12-01T17:28:56;7.60;70.50
4107;DHT22;21906;50.812;7.132;2022-12-01T17:31:22;7.60;70.70
4107;DHT22;21906;50.812;7.132;2022-12-01T17:33:47;7.50;70.50
4107;DHT22;21906;50.812;7.132;2022-12-01T17:36:14;7.40;71.00
4107;DHT22;21906;50.812;7.132;2022-12-01T17:38:42;7.50;70.90
4107;DHT22;21906;50.812;7.132;2022-12-01T17:41:14;7.50;70.30
4107;DHT22;21906;50.812;7.132;2022-12-01T17:43:40;7.30;71.10
4107;DHT22;21906;50.812;7.132;2022-12-01T17:46:07;7.20;71.60
4107;DHT22;21906;50.812;7.132;2022-12-01T17:48:44;7.30;71.30
4107;DHT22;21906;50.812;7.132;2022-12-01T17:51:11;7.20;71.00
4107;DHT22;21906;50.812;7.132;2022-12-01T17:53:37;7.10;71.80
4107;DHT22;21906;50.812;7.132;2022-12-01T17:56:08;7.20;72.00
4107;DHT22;21906;50.812;7.132;2022-12-01T17:58:35;7.10;71.80
4107;DHT22;21906;50.812;7.132;2022-12-01T18:01:01;7.20;72.10
4107;DHT22;21906;50.812;7.132;2022-12-01T18:03:26;7.20;71.60
4107;DHT22;21906;50.812;7.132;2022-12-01T18:06:00;7.00;72.00
4107;DHT22;21906;50.812;7.132;2022-12-01T18:08:27;7.10;72.10
4107;DHT22;21906;50.812;7.132;2022-12-01T18:10:53;7.00;72.20
4107;DHT22;21906;50.812;7.132;2022-12-01T18:13:20;7.20;72.00
4107;DHT22;21906;50.812;7.132;2022-12-01T18:15:46;7.30;71.80
4107;DHT22;21906;50.812;7.132;2022-12-01T18:18:12;7.30;71.70
4107;DHT22;21906;50.812;7.132;2022-12-01T18:20:42;7.30;71.40
4107;DHT22;21906;50.812;7.132;2022-12-01T18:23:09;7.20;71.40
4107;DHT22;21906;50.812;7.132;2022-12-01T18:25:36;7.20;71.50
4107;DHT22;21906;50.812;7.132;2022-12-01T18:28:02;7.10;72.10
4107;DHT22;21906;50.812;7.132;2022-12-01T18:30:28;7.10;72.10
4107;DHT22;21906;50.812;7.132;2022-12-01T18:32:54;7.10;72.10
4107;DHT22;21906;50.812;7.132;2022-12-01T18:35:21;7.20;72.20